Essex, Vermont
Current Conditions -  °F | °C
As of 6:54 AM on Tuesday 27 Jan 2015 (Local Time) from KBTV Reporting Station
Broken Clouds Broken Clouds  
Wind Chill: -8°   Ceiling: 12000
Heat Index:   Visibility: 10mi
Dew Point: -2°   Wind: 14mph
Humidity: 64%   Direction: 350°N
Pressure: 29.94"   Gusts: NA
Location:  44.51°N, 73.05°W
Report Text: KBTV 271154Z 35012KT 10SM BKN120 M13/M19 A2994 RMK AO2 SLP145 4/002 T11331189 11133 21150 58009
Loading
Personal Weather Stations






























Interactive Weather Map New forecast layout! Learn more

10-Day Weather Forecast

Advertisements
Track Severe Weather on mobile